createdAt,value
2022-10-20T00:00:47.533Z,23.55
2022-10-20T00:03:37.739Z,23.61
2022-10-20T00:06:21.310Z,23.37
2022-10-20T00:09:06.520Z,23.47
2022-10-20T00:11:55.359Z,23.36
2022-10-20T00:14:44.602Z,23.75
2022-10-20T00:17:26.756Z,23.28
2022-10-20T00:20:22.324Z,23.57
2022-10-20T00:23:04.560Z,23.64
2022-10-20T00:25:54.322Z,23.51
2022-10-20T00:28:37.093Z,23.58
2022-10-20T00:31:27.326Z,23.42
2022-10-20T00:34:09.481Z,23.33
2022-10-20T00:36:58.302Z,23.61
2022-10-20T00:39:40.548Z,23.49
2022-10-20T00:42:30.300Z,23.11
2022-10-20T00:45:26.329Z,23.69
2022-10-20T00:48:21.305Z,23.71
2022-10-20T00:51:10.308Z,23.40
2022-10-20T00:54:01.325Z,22.96
2022-10-20T00:56:53.668Z,23.40
2022-10-20T00:59:41.647Z,23.17
2022-10-20T01:02:30.579Z,23.13
2022-10-20T01:05:13.338Z,23.25
2022-10-20T01:07:55.493Z,22.76
2022-10-20T01:10:54.313Z,23.37
2022-10-20T01:13:54.781Z,22.75
2022-10-20T01:16:57.311Z,22.96
2022-10-20T01:20:02.602Z,23.31
2022-10-20T01:23:03.315Z,23.19
2022-10-20T01:26:10.303Z,23.55
2022-10-20T01:29:17.206Z,23.03
2022-10-20T01:32:40.319Z,23.26
2022-10-20T01:35:47.278Z,23.21
2022-10-20T01:38:49.316Z,23.28
2022-10-20T01:42:08.576Z,23.37
2022-10-20T01:45:00.302Z,23.60
2022-10-20T01:47:51.301Z,23.40
2022-10-20T01:50:44.315Z,23.48
2022-10-20T01:53:28.573Z,23.79
2022-10-20T01:56:26.369Z,23.68
2022-10-20T01:59:29.591Z,23.91
2022-10-20T02:02:31.361Z,23.78
2022-10-20T02:05:50.525Z,23.85
2022-10-20T02:09:06.618Z,24.24
2022-10-20T02:12:09.820Z,24.05
2022-10-20T02:15:07.007Z,23.89
2022-10-20T02:17:53.641Z,23.75
2022-10-20T02:20:49.354Z,23.72
2022-10-20T02:23:40.632Z,23.96
2022-10-20T02:26:27.661Z,23.92
2022-10-20T02:29:30.620Z,23.74
2022-10-20T02:32:13.295Z,23.72
2022-10-20T02:35:05.054Z,23.89
2022-10-20T02:37:49.357Z,23.90
2022-10-20T02:40:38.637Z,24.10
2022-10-20T02:43:21.284Z,24.42
2022-10-20T02:46:10.332Z,23.94
2022-10-20T02:48:59.305Z,24.30
2022-10-20T02:51:48.560Z,24.27
2022-10-20T02:54:30.679Z,24.48
2022-10-20T02:57:19.269Z,24.56
2022-10-20T03:00:08.284Z,24.48
2022-10-20T03:02:50.833Z,24.37
2022-10-20T03:05:39.298Z,24.34
2022-10-20T03:08:29.380Z,24.35
2022-10-20T03:11:19.303Z,24.64
2022-10-20T03:14:07.643Z,24.35
2022-10-20T03:16:49.318Z,24.76
2022-10-20T03:19:38.317Z,24.69
2022-10-20T03:22:26.676Z,24.88
2022-10-20T03:25:08.306Z,25.10
2022-10-20T03:27:56.688Z,25.42
2022-10-20T03:30:38.340Z,25.38
2022-10-20T03:33:27.766Z,25.50
2022-10-20T03:36:10.328Z,25.17
2022-10-20T03:38:59.352Z,25.47
2022-10-20T03:41:41.651Z,25.35
2022-10-20T03:44:30.580Z,25.30
2022-10-20T03:47:19.361Z,25.32
2022-10-20T03:50:08.311Z,25.17
2022-10-20T03:52:57.351Z,25.43
2022-10-20T03:55:46.343Z,25.55
2022-10-20T03:58:28.597Z,25.31
2022-10-20T04:01:24.160Z,26.16
2022-10-20T04:04:06.637Z,26.13
2022-10-20T04:06:55.351Z,25.95
2022-10-20T04:09:37.725Z,26.31
2022-10-20T04:12:26.411Z,26.04
2022-10-20T04:15:09.596Z,26.10
2022-10-20T04:17:58.314Z,25.78
2022-10-20T04:20:47.344Z,26.14
2022-10-20T04:23:35.641Z,26.05
2022-10-20T04:26:20.336Z,26.32
2022-10-20T04:29:03.647Z,26.56
2022-10-20T04:31:52.349Z,26.49
2022-10-20T04:34:34.620Z,26.60
2022-10-20T04:37:23.350Z,26.97
2022-10-20T04:40:05.745Z,26.62
2022-10-20T04:42:54.773Z,26.53
2022-10-20T04:45:43.579Z,27.01
2022-10-20T04:48:26.299Z,27.28
2022-10-20T04:51:11.032Z,27.69
2022-10-20T04:54:01.361Z,27.92
2022-10-20T04:56:43.488Z,28.13
2022-10-20T04:59:32.334Z,28.01
2022-10-20T05:02:21.349Z,28.49
2022-10-20T05:05:10.376Z,28.54
2022-10-20T05:07:52.481Z,28.31
2022-10-20T05:10:44.305Z,28.68
2022-10-20T05:13:32.605Z,28.98
2022-10-20T05:16:28.312Z,28.73
2022-10-20T05:19:10.575Z,28.79
2022-10-20T05:21:59.347Z,28.59
2022-10-20T05:24:41.806Z,28.33
2022-10-20T05:27:30.357Z,28.31
2022-10-20T05:30:12.725Z,29.22
2022-10-20T05:33:01.310Z,29.25
2022-10-20T05:35:43.663Z,29.31
2022-10-20T05:38:32.347Z,30.06
2022-10-20T05:41:38.018Z,30.10
2022-10-20T05:44:28.302Z,29.47
2022-10-20T05:47:17.354Z,30.46
2022-10-20T05:50:05.616Z,30.64
2022-10-20T05:52:47.395Z,30.31
2022-10-20T05:55:36.596Z,30.19
2022-10-20T05:58:22.229Z,30.04
2022-10-20T06:01:26.369Z,30.75
2022-10-20T06:04:09.398Z,29.98
2022-10-20T06:06:59.578Z,29.65
2022-10-20T06:09:41.403Z,30.48
2022-10-20T06:12:29.636Z,30.20
2022-10-20T06:15:12.337Z,30.35
2022-10-20T06:18:01.258Z,31.34
2022-10-20T06:20:50.323Z,31.10
2022-10-20T06:23:45.321Z,31.04
2022-10-20T06:26:41.287Z,30.90
2022-10-20T06:29:32.329Z,31.16
2022-10-20T06:32:21.302Z,30.77
2022-10-20T06:35:10.322Z,31.23
2022-10-20T06:37:52.695Z,30.98
2022-10-20T06:40:41.406Z,30.50
2022-10-20T06:43:24.072Z,30.99
2022-10-20T06:46:19.735Z,30.54
2022-10-20T06:49:09.643Z,29.84
2022-10-20T06:51:51.312Z,30.76
2022-10-20T06:54:33.358Z,30.22
2022-10-20T06:57:15.517Z,30.48
2022-10-20T07:00:04.324Z,30.32
2022-10-20T07:02:46.463Z,30.72
2022-10-20T07:05:35.306Z,30.60
2022-10-20T07:08:24.253Z,30.62
2022-10-20T07:11:18.905Z,30.42
2022-10-20T07:14:01.622Z,30.52
2022-10-20T07:16:50.343Z,30.22
2022-10-20T07:19:39.316Z,30.28
2022-10-20T07:22:34.722Z,30.32
2022-10-20T07:25:24.338Z,30.08
2022-10-20T07:28:13.402Z,30.05
2022-10-20T07:31:01.592Z,29.59
2022-10-20T07:33:44.491Z,29.02
2022-10-20T07:36:32.319Z,29.24
2022-10-20T07:39:27.290Z,29.26
2022-10-20T07:42:16.351Z,28.73
2022-10-20T07:44:58.747Z,28.62
2022-10-20T07:47:47.776Z,27.94
2022-10-20T07:50:29.789Z,28.50
2022-10-20T07:53:18.378Z,28.26
2022-10-20T07:56:00.614Z,28.58
2022-10-20T07:58:49.374Z,28.46
2022-10-20T08:01:31.733Z,28.10
2022-10-20T08:04:21.346Z,28.15
2022-10-20T08:07:03.593Z,27.67
2022-10-20T08:09:52.740Z,28.25
2022-10-20T08:12:35.001Z,27.87
2022-10-20T08:15:24.365Z,27.67
2022-10-20T08:18:06.797Z,27.33
2022-10-20T08:20:55.382Z,27.94
2022-10-20T08:23:47.612Z,28.56
2022-10-20T08:26:32.369Z,28.34
2022-10-20T08:29:20.625Z,28.26
2022-10-20T08:32:03.374Z,27.82
2022-10-20T08:34:51.638Z,27.58
2022-10-20T08:37:34.681Z,27.62
2022-10-20T08:40:34.639Z,27.65
2022-10-20T08:43:25.389Z,27.66
2022-10-20T08:46:14.679Z,27.27
2022-10-20T08:48:58.305Z,27.23
2022-10-20T08:51:47.323Z,27.66
2022-10-20T08:54:29.608Z,27.86
2022-10-20T08:57:39.543Z,27.39
2022-10-20T09:00:23.638Z,26.94
2022-10-20T09:03:20.374Z,27.52
2022-10-20T09:06:15.743Z,26.33
2022-10-20T09:09:05.419Z,26.92
2022-10-20T09:11:47.806Z,27.17
2022-10-20T09:14:40.368Z,26.97
2022-10-20T09:17:26.606Z,26.98
2022-10-20T09:20:40.341Z,27.16
2022-10-20T09:23:41.837Z,27.48
2022-10-20T09:26:58.132Z,27.04
2022-10-20T09:29:53.310Z,26.90
2022-10-20T09:32:52.678Z,27.36
2022-10-20T09:35:49.328Z,27.13
2022-10-20T09:38:40.635Z,26.97
2022-10-20T09:41:27.338Z,26.97
2022-10-20T09:44:24.781Z,27.47
2022-10-20T09:47:14.344Z,26.61
2022-10-20T09:50:08.608Z,27.27
2022-10-20T09:52:56.333Z,26.92
2022-10-20T09:55:43.289Z,26.91
2022-10-20T09:58:56.259Z,27.02
2022-10-20T10:01:55.527Z,26.63
2022-10-20T10:04:53.348Z,26.34
2022-10-20T10:07:48.273Z,26.63
2022-10-20T10:10:39.628Z,26.69
2022-10-20T10:13:36.354Z,27.18
2022-10-20T10:16:32.186Z,26.63
2022-10-20T10:19:22.403Z,26.78
2022-10-20T10:22:12.338Z,27.04
2022-10-20T10:25:04.504Z,26.90
2022-10-20T10:28:12.614Z,27.35
2022-10-20T10:30:55.342Z,26.63
2022-10-20T10:33:43.618Z,26.64
2022-10-20T10:36:45.240Z,26.60
2022-10-20T10:39:34.658Z,26.41
2022-10-20T10:42:53.295Z,26.33
2022-10-20T10:45:47.672Z,26.26
2022-10-20T10:48:38.325Z,26.23
2022-10-20T10:51:33.320Z,26.14
2022-10-20T10:54:50.230Z,26.28
2022-10-20T10:57:36.995Z,26.57
2022-10-20T11:00:41.262Z,26.08
2022-10-20T11:03:48.595Z,26.37
2022-10-20T11:06:58.057Z,26.40
2022-10-20T11:09:49.399Z,25.84
2022-10-20T11:13:01.627Z,26.10
2022-10-20T11:15:58.369Z,26.26
2022-10-20T11:19:09.227Z,26.16
2022-10-20T11:22:29.376Z,26.12
2022-10-20T11:25:21.602Z,26.41
2022-10-20T11:28:06.322Z,26.03
2022-10-20T11:30:56.316Z,26.15
2022-10-20T11:33:51.639Z,26.35
2022-10-20T11:37:05.220Z,25.99
2022-10-20T11:40:09.205Z,26.01
2022-10-20T11:43:18.490Z,26.23
2022-10-20T11:46:16.313Z,25.50
2022-10-20T11:49:05.497Z,25.78
2022-10-20T11:52:06.309Z,25.76
2022-10-20T11:55:17.115Z,25.42
2022-10-20T11:58:09.315Z,25.38
2022-10-20T12:01:08.623Z,25.61
2022-10-20T12:04:02.556Z,25.95
2022-10-20T12:07:04.617Z,25.47
2022-10-20T12:09:52.330Z,25.37
2022-10-20T12:13:03.618Z,25.10
2022-10-20T12:15:58.339Z,25.30
2022-10-20T12:18:47.603Z,25.59
2022-10-20T12:22:12.317Z,25.05
2022-10-20T12:25:00.612Z,25.25
2022-10-20T12:27:44.647Z,25.14
2022-10-20T12:31:04.650Z,25.11
2022-10-20T12:34:07.227Z,25.02
2022-10-20T12:36:55.650Z,25.13
2022-10-20T12:39:38.230Z,24.89
2022-10-20T12:42:38.665Z,24.71
2022-10-20T12:45:26.189Z,25.07
2022-10-20T12:48:18.243Z,24.92
2022-10-20T12:51:01.550Z,25.11
2022-10-20T12:53:50.273Z,25.21
2022-10-20T12:56:35.759Z,24.96
2022-10-20T12:59:36.308Z,25.15
2022-10-20T13:02:25.241Z,24.66
2022-10-20T13:05:17.313Z,24.60
2022-10-20T13:08:08.140Z,24.52
2022-10-20T13:10:58.607Z,24.28
2022-10-20T13:13:40.913Z,24.87
2022-10-20T13:16:31.197Z,24.23
2022-10-20T13:19:33.321Z,24.57
2022-10-20T13:22:54.245Z,24.34
2022-10-20T13:25:51.242Z,24.87
2022-10-20T13:28:36.737Z,24.38
2022-10-20T13:31:53.360Z,24.62
2022-10-20T13:35:04.329Z,24.30
2022-10-20T13:38:00.842Z,24.40
2022-10-20T13:41:08.230Z,23.99
2022-10-20T13:44:00.851Z,24.14
2022-10-20T13:46:59.411Z,23.94
2022-10-20T13:50:01.251Z,23.97
2022-10-20T13:52:50.753Z,23.82
2022-10-20T13:56:08.303Z,23.81
2022-10-20T13:59:09.881Z,24.12
2022-10-20T14:02:03.223Z,23.88
2022-10-20T14:04:52.245Z,23.82
2022-10-20T14:07:48.587Z,23.74
2022-10-20T14:10:36.901Z,24.10
2022-10-20T14:13:37.997Z,24.14
2022-10-20T14:16:35.738Z,23.95
2022-10-20T14:19:22.329Z,23.76
2022-10-20T14:22:33.301Z,24.41
2022-10-20T14:25:22.341Z,24.09
2022-10-20T14:28:07.448Z,24.36
2022-10-20T14:31:00.506Z,23.85
2022-10-20T14:33:55.441Z,24.10
2022-10-20T14:36:46.069Z,24.11
2022-10-20T14:39:30.614Z,24.06
2022-10-20T14:42:31.200Z,23.98
2022-10-20T14:45:13.562Z,23.86
2022-10-20T14:48:06.180Z,23.74
2022-10-20T14:50:55.208Z,23.94
2022-10-20T14:53:37.475Z,23.62
2022-10-20T14:56:39.273Z,24.02
2022-10-20T14:59:41.274Z,23.81
2022-10-20T15:02:30.556Z,23.72
2022-10-20T15:05:44.326Z,23.92
2022-10-20T15:08:35.637Z,24.05
2022-10-20T15:11:36.158Z,24.12
2022-10-20T15:14:31.234Z,24.01
2022-10-20T15:17:49.251Z,23.76
2022-10-20T15:20:42.584Z,23.64
2022-10-20T15:23:43.296Z,23.75
2022-10-20T15:26:31.777Z,23.81
2022-10-20T15:29:15.164Z,23.56
2022-10-20T15:32:06.964Z,23.58
2022-10-20T15:34:50.538Z,23.68
2022-10-20T15:37:38.543Z,23.43
2022-10-20T15:40:21.159Z,23.40
2022-10-20T15:43:03.532Z,23.57
2022-10-20T15:46:02.253Z,23.16
2022-10-20T15:48:44.796Z,23.08
2022-10-20T15:51:43.259Z,23.02
2022-10-20T15:54:32.512Z,23.20
2022-10-20T15:57:14.358Z,23.27
2022-10-20T16:00:03.634Z,23.12
2022-10-20T16:02:45.271Z,23.21
2022-10-20T16:05:35.010Z,22.95
2022-10-20T16:08:18.151Z,23.16
2022-10-20T16:11:00.524Z,23.20
2022-10-20T16:13:53.706Z,22.98
2022-10-20T16:16:42.666Z,22.97
2022-10-20T16:19:24.286Z,22.92
2022-10-20T16:22:19.124Z,22.98
2022-10-20T16:25:11.177Z,22.80
2022-10-20T16:27:54.676Z,22.77
2022-10-20T16:30:43.284Z,22.66
2022-10-20T16:33:25.669Z,22.48
2022-10-20T16:36:18.239Z,22.66
2022-10-20T16:39:13.243Z,22.67
2022-10-20T16:42:02.262Z,22.54
2022-10-20T16:44:44.508Z,22.61
2022-10-20T16:47:34.477Z,22.43
2022-10-20T16:50:23.287Z,22.51
2022-10-20T16:53:12.348Z,22.39
2022-10-20T16:56:02.589Z,22.93
2022-10-20T16:58:51.189Z,22.60
2022-10-20T17:01:40.182Z,22.73
2022-10-20T17:04:24.897Z,22.62
2022-10-20T17:07:16.243Z,22.83
2022-10-20T17:10:05.553Z,22.81
2022-10-20T17:15:30.636Z,22.92
2022-10-20T17:18:19.221Z,22.76
2022-10-20T17:21:08.547Z,22.59
2022-10-20T17:24:04.066Z,22.36
2022-10-20T17:26:53.247Z,22.34
2022-10-20T17:29:35.666Z,22.39
2022-10-20T17:32:24.240Z,22.38
2022-10-20T17:35:06.577Z,22.42
2022-10-20T17:37:55.231Z,22.39
2022-10-20T17:40:44.238Z,22.39
2022-10-20T17:43:26.422Z,22.29
2022-10-20T17:46:18.239Z,22.42
2022-10-20T17:49:09.229Z,22.46
2022-10-20T17:51:51.521Z,22.65
2022-10-20T17:54:40.228Z,22.43
2022-10-20T17:57:29.217Z,22.48
2022-10-20T18:00:26.811Z,22.58
2022-10-20T18:03:14.234Z,22.41
2022-10-20T18:05:56.587Z,22.30
2022-10-20T18:08:45.266Z,22.27
2022-10-20T18:11:39.227Z,22.27
2022-10-20T18:14:28.230Z,22.29
2022-10-20T18:17:17.656Z,22.25
2022-10-20T18:20:00.247Z,22.41
2022-10-20T18:22:56.214Z,22.35
2022-10-20T18:25:38.638Z,22.32
2022-10-20T18:28:28.224Z,22.47
2022-10-20T18:31:21.336Z,22.35
2022-10-20T18:34:07.109Z,22.48
2022-10-20T18:36:57.232Z,22.43
2022-10-20T18:39:39.778Z,22.53
2022-10-20T18:42:28.234Z,22.61
2022-10-20T18:45:10.667Z,22.44
2022-10-20T18:47:59.209Z,22.76
2022-10-20T18:50:43.566Z,22.69
2022-10-20T18:53:33.225Z,22.85
2022-10-20T18:56:20.655Z,22.84
2022-10-20T18:59:15.214Z,22.98
2022-10-20T19:02:04.161Z,22.95
2022-10-20T19:04:59.564Z,22.76
2022-10-20T19:07:47.514Z,22.79
2022-10-20T19:10:30.274Z,22.78
2022-10-20T19:13:18.548Z,22.65
2022-10-20T19:16:02.478Z,22.37
2022-10-20T19:18:55.495Z,22.53
2022-10-20T19:21:38.269Z,22.25
2022-10-20T19:24:38.081Z,22.01
2022-10-20T19:27:27.602Z,21.81
2022-10-20T19:30:09.688Z,21.89
2022-10-20T19:33:00.145Z,21.78
2022-10-20T19:35:42.676Z,21.73
2022-10-20T19:38:31.211Z,21.67
2022-10-20T19:41:21.124Z,21.69
2022-10-20T19:44:04.192Z,21.35
2022-10-20T19:46:59.261Z,21.42
2022-10-20T19:49:42.563Z,21.46
2022-10-20T19:52:31.110Z,21.40
2022-10-20T19:55:13.396Z,21.35
2022-10-20T19:58:02.254Z,21.37
2022-10-20T20:00:57.125Z,21.38
2022-10-20T20:03:40.598Z,21.45
2022-10-20T20:06:30.255Z,21.47
2022-10-20T20:09:19.893Z,21.49
2022-10-20T20:12:08.218Z,21.16
2022-10-20T20:14:57.118Z,21.16
2022-10-20T20:17:46.127Z,21.41
2022-10-20T20:20:28.473Z,21.16
2022-10-20T20:23:20.043Z,21.16
2022-10-20T20:26:13.965Z,21.22
2022-10-20T20:29:03.228Z,21.23
2022-10-20T20:31:58.203Z,21.29
2022-10-20T20:34:47.225Z,21.24
2022-10-20T20:37:29.542Z,21.12
2022-10-20T20:40:18.245Z,21.00
2022-10-20T20:43:00.526Z,20.99
2022-10-20T20:45:49.256Z,20.98
2022-10-20T20:48:31.736Z,20.83
2022-10-20T20:51:21.266Z,20.89
2022-10-20T20:54:03.680Z,20.80
2022-10-20T20:56:52.239Z,20.83
2022-10-20T20:59:34.489Z,20.82
2022-10-20T21:02:24.222Z,20.85
2022-10-20T21:05:13.110Z,20.65
2022-10-20T21:08:01.516Z,20.68
2022-10-20T21:10:45.135Z,20.68
2022-10-20T21:13:33.515Z,20.73
2022-10-20T21:16:21.227Z,20.74
2022-10-20T21:19:11.426Z,20.79
2022-10-20T21:22:09.204Z,20.86
2022-10-20T21:24:57.479Z,20.90
2022-10-20T21:27:39.120Z,20.73
2022-10-20T21:30:21.585Z,20.65
2022-10-20T21:33:10.111Z,20.60
2022-10-20T21:35:59.239Z,20.80
2022-10-20T21:38:49.112Z,20.71
2022-10-20T21:41:40.523Z,20.68
2022-10-20T21:44:23.212Z,20.70
2022-10-20T21:47:11.675Z,20.66
2022-10-20T21:49:53.124Z,20.67
2022-10-20T21:52:41.470Z,20.51
2022-10-20T21:55:24.145Z,20.52
2022-10-20T21:58:12.465Z,20.53
2022-10-20T22:00:55.241Z,20.34
2022-10-20T22:03:43.555Z,20.59
2022-10-20T22:06:28.195Z,20.47
2022-10-20T22:09:18.547Z,20.48
2022-10-20T22:12:03.103Z,20.22
2022-10-20T22:14:47.246Z,20.35
2022-10-20T22:17:36.423Z,20.45
2022-10-20T22:20:18.460Z,20.52
2022-10-20T22:23:07.513Z,20.56
2022-10-20T22:26:00.541Z,20.54
2022-10-20T22:28:43.270Z,20.40
2022-10-20T22:31:33.000Z,20.39
2022-10-20T22:34:16.249Z,20.35
2022-10-20T22:37:04.511Z,20.28
2022-10-20T22:39:46.131Z,20.43
2022-10-20T22:42:34.521Z,20.50
2022-10-20T22:45:18.265Z,20.41
2022-10-20T22:48:07.508Z,20.41
2022-10-20T22:50:50.203Z,20.53
2022-10-20T22:53:32.474Z,20.39
2022-10-20T22:56:27.198Z,20.43
2022-10-20T22:59:09.439Z,20.44
2022-10-20T23:01:58.114Z,20.37
2022-10-20T23:04:46.466Z,20.37
2022-10-20T23:07:29.189Z,20.34
2022-10-20T23:10:18.452Z,20.49
2022-10-20T23:13:00.223Z,20.33
2022-10-20T23:15:42.373Z,20.37
2022-10-20T23:18:31.214Z,20.35
2022-10-20T23:21:22.119Z,20.26
2022-10-20T23:24:10.480Z,20.32
2022-10-20T23:26:53.204Z,20.37
2022-10-20T23:29:42.107Z,20.37
2022-10-20T23:32:31.264Z,20.37
2022-10-20T23:35:13.470Z,20.25
2022-10-20T23:38:02.224Z,20.20
2022-10-20T23:40:50.492Z,20.40
2022-10-20T23:43:33.266Z,20.55
2022-10-20T23:46:15.704Z,20.29
2022-10-20T23:49:04.231Z,20.50
2022-10-20T23:51:46.444Z,20.34
2022-10-20T23:54:35.268Z,20.39
2022-10-20T23:57:23.568Z,20.57
